createdAt,value
2019-05-01T00:00:24.267Z,55.50
2019-05-01T00:02:57.343Z,55.50
2019-05-01T00:05:36.857Z,55.40
2019-05-01T00:08:06.421Z,55.40
2019-05-01T00:10:35.514Z,55.40
2019-05-01T00:13:05.555Z,55.50
2019-05-01T00:15:35.880Z,55.40
2019-05-01T00:18:04.737Z,55.50
2019-05-01T00:20:33.323Z,55.40
2019-05-01T00:23:01.897Z,55.30
2019-05-01T00:25:30.507Z,55.30
2019-05-01T00:27:59.085Z,55.20
2019-05-01T00:30:30.071Z,55.10
2019-05-01T00:32:59.886Z,55.10
2019-05-01T00:35:28.501Z,55.00
2019-05-01T00:37:57.077Z,55.00
2019-05-01T00:40:25.786Z,55.00
2019-05-01T00:42:54.426Z,55.00
2019-05-01T00:45:22.989Z,55.00
2019-05-01T00:47:52.455Z,55.00
2019-05-01T00:50:21.073Z,55.10
2019-05-01T00:52:49.715Z,55.20
2019-05-01T00:55:35.808Z,55.10
2019-05-01T00:58:07.674Z,55.10
2019-05-01T01:00:43.100Z,55.00
2019-05-01T01:03:09.235Z,55.00
2019-05-01T01:05:37.930Z,55.10
2019-05-01T01:08:06.501Z,55.00
2019-05-01T01:10:35.250Z,55.50
2019-05-01T01:13:03.995Z,55.20
2019-05-01T01:15:32.883Z,55.10
2019-05-01T01:18:01.472Z,55.20
2019-05-01T01:20:30.118Z,55.20
2019-05-01T01:22:58.772Z,55.20
2019-05-01T01:25:27.455Z,55.20
2019-05-01T01:27:56.148Z,55.00
2019-05-01T01:30:24.808Z,55.10
2019-05-01T01:32:53.484Z,55.30
2019-05-01T01:35:22.202Z,55.40
2019-05-01T01:37:50.760Z,55.50
2019-05-01T01:40:19.657Z,55.50
2019-05-01T01:42:50.254Z,55.70
2019-05-01T01:45:26.685Z,55.60
2019-05-01T01:48:15.586Z,55.60
2019-05-01T01:50:45.569Z,55.60
2019-05-01T01:53:17.335Z,55.70
2019-05-01T01:55:46.713Z,55.80
2019-05-01T01:58:16.576Z,55.90
2019-05-01T02:01:08.325Z,55.80
2019-05-01T02:03:28.517Z,55.80
2019-05-01T02:05:57.172Z,55.80
2019-05-01T02:08:25.814Z,55.60
2019-05-01T02:10:54.771Z,55.50
2019-05-01T02:13:23.856Z,55.60
2019-05-01T02:15:52.544Z,56.20
2019-05-01T02:18:21.192Z,56.50
2019-05-01T02:20:49.768Z,56.40
2019-05-01T02:23:18.350Z,56.70
2019-05-01T02:25:46.938Z,56.70
2019-05-01T02:28:26.217Z,56.80
2019-05-01T02:31:26.977Z,56.70
2019-05-01T02:33:44.917Z,56.70
2019-05-01T02:36:15.842Z,56.80
2019-05-01T02:38:47.027Z,56.80
2019-05-01T02:41:16.955Z,57.00
2019-05-01T02:43:48.600Z,57.10
2019-05-01T02:46:19.223Z,57.20
2019-05-01T02:48:53.421Z,57.10
2019-05-01T02:51:22.629Z,57.10
2019-05-01T02:53:51.472Z,57.10
2019-05-01T02:56:37.522Z,57.20
2019-05-01T02:59:08.559Z,57.20
2019-05-01T03:01:46.972Z,57.20
2019-05-01T03:04:10.156Z,57.10
2019-05-01T03:06:40.026Z,57.20
2019-05-01T03:09:08.739Z,57.10
2019-05-01T03:11:40.060Z,56.70
2019-05-01T03:14:11.712Z,57.30
2019-05-01T03:16:42.484Z,56.40
2019-05-01T03:19:30.313Z,56.40
2019-05-01T03:22:01.198Z,56.30
2019-05-01T03:24:30.324Z,56.20
2019-05-01T03:26:59.424Z,56.20
2019-05-01T03:29:28.323Z,56.10
2019-05-01T03:32:15.346Z,56.10
2019-05-01T03:34:27.945Z,56.10
2019-05-01T03:36:57.546Z,56.10
2019-05-01T03:39:26.669Z,56.10
2019-05-01T03:41:55.476Z,56.00
2019-05-01T03:44:24.212Z,56.20
2019-05-01T03:46:53.545Z,56.30
2019-05-01T03:49:23.390Z,56.40
2019-05-01T03:51:53.208Z,56.40
2019-05-01T03:54:24.062Z,56.60
2019-05-01T03:56:52.576Z,56.50
2019-05-01T03:59:21.534Z,56.60
2019-05-01T04:02:10.154Z,56.60
2019-05-01T04:04:39.087Z,56.50
2019-05-01T04:07:07.670Z,56.60
2019-05-01T04:09:36.959Z,56.30
2019-05-01T04:12:07.160Z,56.30
2019-05-01T04:14:39.150Z,56.30
2019-05-01T04:17:08.148Z,56.20
2019-05-01T04:19:39.305Z,56.10
2019-05-01T04:22:13.127Z,56.10
2019-05-01T04:24:43.663Z,56.00
2019-05-01T04:27:15.001Z,55.90
2019-05-01T04:29:54.300Z,56.00
2019-05-01T04:32:24.691Z,55.40
2019-05-01T04:34:55.080Z,55.00
2019-05-01T04:37:25.619Z,54.70
2019-05-01T04:39:54.851Z,54.50
2019-05-01T04:42:23.591Z,54.40
2019-05-01T04:44:52.995Z,54.30
2019-05-01T04:47:21.942Z,54.20
2019-05-01T04:49:51.353Z,54.20
2019-05-01T04:52:20.300Z,54.00
2019-05-01T04:54:49.126Z,53.70
2019-05-01T04:57:17.939Z,53.90
2019-05-01T04:59:46.665Z,54.10
2019-05-01T05:02:17.056Z,54.20
2019-05-01T05:04:45.855Z,53.70
2019-05-01T05:07:14.419Z,53.20
2019-05-01T05:09:47.317Z,52.60
2019-05-01T05:12:34.191Z,52.00
2019-05-01T05:15:20.673Z,51.50
2019-05-01T05:17:49.906Z,50.50
2019-05-01T05:20:18.555Z,48.70
2019-05-01T05:22:47.516Z,47.30
2019-05-01T05:25:16.351Z,45.70
2019-05-01T05:27:46.481Z,44.30
2019-05-01T05:30:15.148Z,43.00
2019-05-01T05:32:46.040Z,42.10
2019-05-01T05:35:15.557Z,40.70
2019-05-01T05:37:48.861Z,39.20
2019-05-01T05:40:19.267Z,38.70
2019-05-01T05:42:47.866Z,39.20
2019-05-01T05:45:16.768Z,39.60
2019-05-01T05:47:45.491Z,39.70
2019-05-01T05:50:15.871Z,39.10
2019-05-01T05:52:49.172Z,39.50
2019-05-01T05:55:21.876Z,39.30
2019-05-01T05:57:56.969Z,38.90
2019-05-01T06:00:28.311Z,39.10
2019-05-01T06:03:04.439Z,38.30
2019-05-01T06:05:39.818Z,36.50
2019-05-01T06:08:16.181Z,34.40
2019-05-01T06:10:58.657Z,33.30
2019-05-01T06:13:44.748Z,33.50
2019-05-01T06:16:16.124Z,33.40
2019-05-01T06:18:58.952Z,33.60
2019-05-01T06:21:29.232Z,33.90
2019-05-01T06:24:06.324Z,34.20
2019-05-01T06:26:37.271Z,33.90
2019-05-01T06:29:03.183Z,34.50
2019-05-01T06:31:33.595Z,34.70
2019-05-01T06:34:02.424Z,34.00
2019-05-01T06:36:31.635Z,32.80
2019-05-01T06:39:00.841Z,32.50
2019-05-01T06:41:33.700Z,31.40
2019-05-01T06:44:04.119Z,29.90
2019-05-01T06:46:51.021Z,29.50
2019-05-01T06:49:29.322Z,28.30
2019-05-01T06:51:59.881Z,27.30
2019-05-01T06:54:30.716Z,26.80
2019-05-01T06:57:01.845Z,26.00
2019-05-01T06:59:33.422Z,25.20
2019-05-01T07:02:02.705Z,25.00
2019-05-01T07:04:37.921Z,24.60
2019-05-01T07:07:06.658Z,24.00
2019-05-01T07:09:35.643Z,23.40
2019-05-01T07:12:06.591Z,23.50
2019-05-01T07:14:35.610Z,23.70
2019-05-01T07:17:04.539Z,23.00
2019-05-01T07:19:42.610Z,22.80
2019-05-01T07:22:11.212Z,21.70
2019-05-01T07:24:40.229Z,23.40
2019-05-01T07:27:08.867Z,23.20
2019-05-01T07:29:44.463Z,23.10
2019-05-01T07:32:09.931Z,22.40
2019-05-01T07:34:38.683Z,22.10
2019-05-01T07:37:08.647Z,22.00
2019-05-01T07:39:37.539Z,21.70
2019-05-01T07:42:23.963Z,21.10
2019-05-01T07:44:57.131Z,20.20
2019-05-01T07:47:36.248Z,19.70
2019-05-01T07:50:10.247Z,19.30
2019-05-01T07:52:39.459Z,19.20
2019-05-01T07:55:13.187Z,19.30
2019-05-01T07:57:41.283Z,18.90
2019-05-01T08:00:28.695Z,19.10
2019-05-01T08:02:57.427Z,19.70
2019-05-01T08:05:26.100Z,20.10
2019-05-01T08:07:54.702Z,20.60
2019-05-01T08:10:25.519Z,20.80
2019-05-01T08:12:55.411Z,19.70
2019-05-01T08:15:27.237Z,19.80
2019-05-01T08:17:55.573Z,21.20
2019-05-01T08:20:25.808Z,19.70
2019-05-01T08:22:54.407Z,19.10
2019-05-01T08:25:28.588Z,20.40
2019-05-01T08:27:58.341Z,19.90
2019-05-01T08:30:39.820Z,19.60
2019-05-01T08:33:14.641Z,20.40
2019-05-01T08:35:40.851Z,19.60
2019-05-01T08:38:09.532Z,19.10
2019-05-01T08:40:38.118Z,18.40
2019-05-01T08:43:06.806Z,17.70
2019-05-01T08:45:53.448Z,17.10
2019-05-01T08:48:30.761Z,17.00
2019-05-01T08:51:00.429Z,16.90
2019-05-01T08:53:29.056Z,16.80
2019-05-01T08:55:57.694Z,16.60
2019-05-01T08:58:26.287Z,16.80
2019-05-01T09:00:54.854Z,16.00
2019-05-01T09:03:23.417Z,16.20
2019-05-01T09:05:56.786Z,16.30
2019-05-01T09:08:22.317Z,17.40
2019-05-01T09:10:54.701Z,17.50
2019-05-01T09:13:23.745Z,17.00
2019-05-01T09:15:51.489Z,16.40
2019-05-01T09:18:20.119Z,16.10
2019-05-01T09:20:50.340Z,16.40
2019-05-01T09:23:18.906Z,17.50
2019-05-01T09:25:55.274Z,18.40
2019-05-01T09:28:39.728Z,18.40
2019-05-01T09:31:09.187Z,17.90
2019-05-01T09:33:37.758Z,17.40
2019-05-01T09:36:06.475Z,16.70
2019-05-01T09:38:35.366Z,16.70
2019-05-01T09:41:04.274Z,17.30
2019-05-01T09:43:35.732Z,18.90
2019-05-01T09:46:03.811Z,19.50
2019-05-01T09:48:32.496Z,20.70
2019-05-01T09:51:06.630Z,21.80
2019-05-01T09:53:52.766Z,22.10
2019-05-01T09:56:23.285Z,22.90
2019-05-01T09:58:51.860Z,22.40
2019-05-01T10:01:24.619Z,23.20
2019-05-01T10:03:54.690Z,23.40
2019-05-01T10:06:21.007Z,24.10
2019-05-01T10:08:49.632Z,24.10
2019-05-01T10:11:18.218Z,24.60
2019-05-01T10:13:46.781Z,24.80
2019-05-01T10:16:15.579Z,24.80
2019-05-01T10:18:44.191Z,25.30
2019-05-01T10:21:12.762Z,25.40
2019-05-01T10:23:41.343Z,25.20
2019-05-01T10:26:11.621Z,24.90
2019-05-01T10:28:49.502Z,25.50
2019-05-01T10:31:16.787Z,25.40
2019-05-01T10:33:49.922Z,25.20
2019-05-01T10:36:32.127Z,25.20
2019-05-01T10:39:00.758Z,25.30
2019-05-01T10:41:29.524Z,25.50
2019-05-01T10:43:58.108Z,25.50
2019-05-01T10:46:26.764Z,25.70
2019-05-01T10:48:57.285Z,25.20
2019-05-01T10:51:25.636Z,25.90
2019-05-01T10:53:54.225Z,26.10
2019-05-01T10:56:23.091Z,26.30
2019-05-01T10:58:52.219Z,26.60
2019-05-01T11:01:38.279Z,26.50
2019-05-01T11:04:07.037Z,26.50
2019-05-01T11:06:35.675Z,26.40
2019-05-01T11:09:06.272Z,26.50
2019-05-01T11:11:35.057Z,26.40
2019-05-01T11:14:03.804Z,26.10
2019-05-01T11:16:32.440Z,26.00
2019-05-01T11:19:01.075Z,26.00
2019-05-01T11:21:29.723Z,25.90
2019-05-01T11:23:58.308Z,25.90
2019-05-01T11:26:26.948Z,25.90
2019-05-01T11:28:55.504Z,26.00
2019-05-01T11:31:26.109Z,25.80
2019-05-01T11:33:57.306Z,26.20
2019-05-01T11:36:36.867Z,26.30
2019-05-01T11:39:08.631Z,26.40
2019-05-01T11:41:47.578Z,26.50
2019-05-01T11:44:16.148Z,26.60
2019-05-01T11:46:44.704Z,26.70
2019-05-01T11:49:13.378Z,27.10
2019-05-01T11:51:42.324Z,27.10
2019-05-01T11:54:10.935Z,27.20
2019-05-01T11:56:40.494Z,27.30
2019-05-01T11:59:09.083Z,27.40
2019-05-01T12:01:37.676Z,27.40
2019-05-01T12:04:06.379Z,27.30
2019-05-01T12:06:34.970Z,27.20
2019-05-01T12:09:05.525Z,27.20
2019-05-01T12:11:36.056Z,27.40
2019-05-01T12:14:05.059Z,27.30
2019-05-01T12:16:53.675Z,27.60
2019-05-01T12:19:25.404Z,27.50
2019-05-01T12:21:53.956Z,27.50
2019-05-01T12:24:22.501Z,27.70
2019-05-01T12:26:51.080Z,27.80
2019-05-01T12:29:19.735Z,27.70
2019-05-01T12:31:48.295Z,27.60
2019-05-01T12:34:16.931Z,27.80
2019-05-01T12:36:46.408Z,27.90
2019-05-01T12:39:18.646Z,27.60
2019-05-01T12:42:00.048Z,27.60
2019-05-01T12:44:28.609Z,27.60
2019-05-01T12:47:01.772Z,27.40
2019-05-01T12:49:30.503Z,27.40
2019-05-01T12:52:10.223Z,27.50
2019-05-01T12:54:33.353Z,27.50
2019-05-01T12:57:02.775Z,27.50
2019-05-01T12:59:31.360Z,27.50
2019-05-01T13:02:00.006Z,27.40
2019-05-01T13:04:28.574Z,27.10
2019-05-01T13:06:59.102Z,27.10
2019-05-01T13:09:27.647Z,27.20
2019-05-01T13:11:56.226Z,27.10
2019-05-01T13:14:24.803Z,27.20
2019-05-01T13:16:53.449Z,27.30
2019-05-01T13:19:22.062Z,27.30
2019-05-01T13:21:50.635Z,27.20
2019-05-01T13:24:19.192Z,27.20
2019-05-01T13:26:49.430Z,27.30
2019-05-01T13:29:25.669Z,27.10
2019-05-01T13:31:56.814Z,27.10
2019-05-01T13:34:25.381Z,27.20
2019-05-01T13:37:02.843Z,27.20
2019-05-01T13:39:24.215Z,27.10
2019-05-01T13:41:52.865Z,27.10
2019-05-01T13:44:21.456Z,26.90
2019-05-01T13:46:50.032Z,27.00
2019-05-01T13:49:19.601Z,27.00
2019-05-01T13:51:48.164Z,26.80
2019-05-01T13:54:16.732Z,26.70
2019-05-01T13:56:45.410Z,26.70
2019-05-01T13:59:14.946Z,26.70
2019-05-01T14:01:43.544Z,26.80
2019-05-01T14:04:13.452Z,26.70
2019-05-01T14:06:42.027Z,26.30
2019-05-01T14:09:12.224Z,26.00
2019-05-01T14:11:40.902Z,25.90
2019-05-01T14:14:09.467Z,25.90
2019-05-01T14:16:38.038Z,25.90
2019-05-01T14:19:06.634Z,25.70
2019-05-01T14:21:42.521Z,25.40
2019-05-01T14:24:30.900Z,25.00
2019-05-01T14:26:59.570Z,24.80
2019-05-01T14:29:28.144Z,24.70
2019-05-01T14:31:56.732Z,24.30
2019-05-01T14:34:25.326Z,24.10
2019-05-01T14:36:53.888Z,23.80
2019-05-01T14:39:22.444Z,23.30
2019-05-01T14:41:52.034Z,23.00
2019-05-01T14:44:20.606Z,22.80
2019-05-01T14:46:49.168Z,22.50
2019-05-01T14:49:17.844Z,22.70
2019-05-01T14:51:46.488Z,22.90
2019-05-01T14:54:15.067Z,23.00
2019-05-01T14:56:43.673Z,23.10
2019-05-01T14:59:12.273Z,23.10
2019-05-01T15:01:40.883Z,23.00
2019-05-01T15:04:09.431Z,22.70
2019-05-01T15:06:38.143Z,22.50
2019-05-01T15:09:08.247Z,22.50
2019-05-01T15:11:37.579Z,22.70
2019-05-01T15:14:16.937Z,22.90
2019-05-01T15:17:04.290Z,23.10
2019-05-01T15:19:34.534Z,23.20
2019-05-01T15:22:03.070Z,23.10
2019-05-01T15:24:31.651Z,23.40
2019-05-01T15:27:00.236Z,24.40
2019-05-01T15:29:28.864Z,24.10
2019-05-01T15:31:57.489Z,24.20
2019-05-01T15:34:26.042Z,24.50
2019-05-01T15:36:54.603Z,24.80
2019-05-01T15:39:24.850Z,24.90
2019-05-01T15:42:03.975Z,25.00
2019-05-01T15:44:34.205Z,25.20
2019-05-01T15:47:02.800Z,25.30
2019-05-01T15:49:31.744Z,25.60
2019-05-01T15:52:00.317Z,25.90
2019-05-01T15:54:28.893Z,26.20
2019-05-01T15:56:57.448Z,26.40
2019-05-01T15:59:26.067Z,26.60
2019-05-01T16:01:54.642Z,26.70
2019-05-01T16:04:24.236Z,26.70
2019-05-01T16:06:52.849Z,26.70
2019-05-01T16:09:22.371Z,26.70
2019-05-01T16:12:08.651Z,26.80
2019-05-01T16:14:37.387Z,26.90
2019-05-01T16:17:06.046Z,26.90
2019-05-01T16:19:34.610Z,27.10
2019-05-01T16:22:03.361Z,27.10
2019-05-01T16:24:31.916Z,27.20
2019-05-01T16:27:00.556Z,27.30
2019-05-01T16:29:29.160Z,27.40
2019-05-01T16:31:57.758Z,27.40
2019-05-01T16:34:26.383Z,27.50
2019-05-01T16:36:55.137Z,32.70
2019-05-01T16:39:41.173Z,38.60
2019-05-01T16:42:09.838Z,36.80
2019-05-01T16:44:38.542Z,34.20
2019-05-01T16:47:07.103Z,32.50
2019-05-01T16:49:35.968Z,32.10
2019-05-01T16:52:04.889Z,30.00
2019-05-01T16:54:33.523Z,28.30
2019-05-01T16:57:02.273Z,28.10
2019-05-01T16:59:30.944Z,28.20
2019-05-01T17:02:01.584Z,28.30
2019-05-01T17:04:31.895Z,28.30
2019-05-01T17:07:18.080Z,28.50
2019-05-01T17:09:51.082Z,28.60
2019-05-01T17:12:21.768Z,28.80
2019-05-01T17:14:50.383Z,28.80
2019-05-01T17:17:19.921Z,28.90
2019-05-01T17:19:48.800Z,29.00
2019-05-01T17:22:17.698Z,29.20
2019-05-01T17:24:46.266Z,29.30
2019-05-01T17:27:14.861Z,29.40
2019-05-01T17:29:43.443Z,29.60
2019-05-01T17:32:13.676Z,29.70
2019-05-01T17:34:42.577Z,29.70
2019-05-01T17:37:11.220Z,29.90
2019-05-01T17:39:39.821Z,30.00
2019-05-01T17:42:08.454Z,30.10
2019-05-01T17:44:39.508Z,30.30
2019-05-01T17:47:07.285Z,30.50
2019-05-01T17:49:35.858Z,30.60
2019-05-01T17:52:04.622Z,30.80
2019-05-01T17:54:33.200Z,30.90
2019-05-01T17:57:01.777Z,31.10
2019-05-01T17:59:31.308Z,31.20
2019-05-01T18:02:20.919Z,31.30
2019-05-01T18:04:51.204Z,31.40
2019-05-01T18:07:20.784Z,31.50
2019-05-01T18:09:51.373Z,31.70
2019-05-01T18:12:23.309Z,31.90
2019-05-01T18:14:50.097Z,32.00
2019-05-01T18:17:18.751Z,32.20
2019-05-01T18:19:47.329Z,32.40
2019-05-01T18:22:17.639Z,32.60
2019-05-01T18:24:58.146Z,32.70
2019-05-01T18:27:28.852Z,33.00
2019-05-01T18:29:59.121Z,33.10
2019-05-01T18:32:32.472Z,33.20
2019-05-01T18:35:01.184Z,33.30
2019-05-01T18:37:35.044Z,33.50
2019-05-01T18:40:01.741Z,33.70
2019-05-01T18:42:30.511Z,33.90
2019-05-01T18:44:59.072Z,34.00
2019-05-01T18:47:28.199Z,34.10
2019-05-01T18:49:56.901Z,34.20
2019-05-01T18:52:25.528Z,34.30
2019-05-01T18:54:54.107Z,34.40
2019-05-01T18:57:22.695Z,34.60
2019-05-01T18:59:52.266Z,34.80
2019-05-01T19:02:24.965Z,34.90
2019-05-01T19:04:51.048Z,35.10
2019-05-01T19:07:22.738Z,35.20
2019-05-01T19:09:51.387Z,35.20
2019-05-01T19:12:20.232Z,35.30
2019-05-01T19:14:48.895Z,35.30
2019-05-01T19:17:17.629Z,35.40
2019-05-01T19:19:46.173Z,35.50
2019-05-01T19:22:15.778Z,35.60
2019-05-01T19:24:44.442Z,35.60
2019-05-01T19:27:14.305Z,35.60
2019-05-01T19:29:44.224Z,35.80
2019-05-01T19:32:13.233Z,35.90
2019-05-01T19:34:41.967Z,35.90
2019-05-01T19:37:10.948Z,35.80
2019-05-01T19:39:43.734Z,35.80
2019-05-01T19:42:10.155Z,35.90
2019-05-01T19:44:38.770Z,35.90
2019-05-01T19:47:07.962Z,36.00
2019-05-01T19:49:36.683Z,36.00
2019-05-01T19:52:05.422Z,36.10
2019-05-01T19:54:33.976Z,36.20
2019-05-01T19:57:02.553Z,36.50
2019-05-01T19:59:31.214Z,37.00
2019-05-01T20:01:59.906Z,37.20
2019-05-01T20:04:28.523Z,37.50
2019-05-01T20:06:57.255Z,37.90
2019-05-01T20:09:27.067Z,38.10
2019-05-01T20:11:55.685Z,38.40
2019-05-01T20:14:24.387Z,38.80
2019-05-01T20:16:53.159Z,39.10
2019-05-01T20:19:21.905Z,39.50
2019-05-01T20:21:50.560Z,39.70
2019-05-01T20:24:19.412Z,39.90
2019-05-01T20:26:48.163Z,40.00
2019-05-01T20:29:17.766Z,40.20
2019-05-01T20:31:50.841Z,40.30
2019-05-01T20:34:18.456Z,40.50
2019-05-01T20:36:47.049Z,40.80
2019-05-01T20:39:16.678Z,40.90
2019-05-01T20:41:45.406Z,41.00
2019-05-01T20:44:18.712Z,41.10
2019-05-01T20:46:44.304Z,41.20
2019-05-01T20:49:12.957Z,41.20
2019-05-01T20:51:41.524Z,41.30
2019-05-01T20:54:11.167Z,41.30
2019-05-01T20:56:41.352Z,41.40
2019-05-01T20:59:09.955Z,41.60
2019-05-01T21:01:38.606Z,41.80
2019-05-01T21:04:08.812Z,42.10
2019-05-01T21:06:43.203Z,42.40
2019-05-01T21:09:13.706Z,42.60
2019-05-01T21:11:47.190Z,42.80
2019-05-01T21:14:22.262Z,43.20
2019-05-01T21:16:44.970Z,43.90
2019-05-01T21:19:13.614Z,43.80
2019-05-01T21:21:43.490Z,44.10
2019-05-01T21:24:13.995Z,44.80
2019-05-01T21:26:43.378Z,45.50
2019-05-01T21:29:13.838Z,45.90
2019-05-01T21:31:44.084Z,46.20
2019-05-01T21:34:14.522Z,46.60
2019-05-01T21:36:47.476Z,47.10
2019-05-01T21:39:14.982Z,47.00
2019-05-01T21:41:43.543Z,47.00
2019-05-01T21:44:13.116Z,47.20
2019-05-01T21:46:43.190Z,47.20
2019-05-01T21:49:12.996Z,47.40
2019-05-01T21:51:45.925Z,47.70
2019-05-01T21:54:16.083Z,47.70
2019-05-01T21:56:42.853Z,47.80
2019-05-01T21:59:11.525Z,47.50
2019-05-01T22:01:40.265Z,47.50
2019-05-01T22:04:09.728Z,48.00
2019-05-01T22:06:38.370Z,48.30
2019-05-01T22:09:10.495Z,48.60
2019-05-01T22:11:39.191Z,48.90
2019-05-01T22:14:09.810Z,49.20
2019-05-01T22:16:38.386Z,49.40
2019-05-01T22:19:08.740Z,49.30
2019-05-01T22:21:53.620Z,49.50
2019-05-01T22:24:29.296Z,49.80
2019-05-01T22:27:02.234Z,50.00
2019-05-01T22:29:38.748Z,50.30
2019-05-01T22:32:17.782Z,50.70
2019-05-01T22:34:50.833Z,51.40
2019-05-01T22:37:19.419Z,52.30
2019-05-01T22:39:49.651Z,52.00
2019-05-01T22:42:18.360Z,52.30
2019-05-01T22:44:47.260Z,52.40
2019-05-01T22:47:17.469Z,52.60
2019-05-01T22:49:46.051Z,52.70
2019-05-01T22:52:14.766Z,52.90
2019-05-01T22:54:48.595Z,53.10
2019-05-01T22:57:15.294Z,53.10
2019-05-01T22:59:43.903Z,53.20
2019-05-01T23:02:28.331Z,53.30
2019-05-01T23:04:58.023Z,53.30
2019-05-01T23:07:26.849Z,53.20
2019-05-01T23:09:59.250Z,53.30
2019-05-01T23:12:25.679Z,53.10
2019-05-01T23:14:54.268Z,53.10
2019-05-01T23:17:42.418Z,53.00
2019-05-01T23:20:11.536Z,53.10
2019-05-01T23:22:40.138Z,53.20
2019-05-01T23:25:08.996Z,53.30
2019-05-01T23:27:37.664Z,53.50
2019-05-01T23:30:08.234Z,53.50
2019-05-01T23:32:36.800Z,53.50
2019-05-01T23:35:08.398Z,53.70
2019-05-01T23:37:37.083Z,53.70
2019-05-01T23:40:10.941Z,53.60
2019-05-01T23:42:37.570Z,53.80
2019-05-01T23:45:06.903Z,54.00
2019-05-01T23:47:35.559Z,54.40
2019-05-01T23:50:05.052Z,54.70
2019-05-01T23:52:33.933Z,55.20
2019-05-01T23:55:08.015Z,55.80
2019-05-01T23:57:37.581Z,56.20
